Timeline UpdatesTrip UpdatesNews PostsPvt PostsTravel TipsAdmin PostsConv PostsFollowed PostsChat RequestsBlog PostsPNR Posts

Disclaimer
Search
 
 
Sat Sep 20, 2014 05:25:12 ISTHomeTrainsΣChainsAtlasPNRForumGalleryNewsFAQTripsMembersLoginFeedback
No Recent News for this Train
Other Trains in the News **new
Latest...
.
Tue Jan 22, 2013 (09:18AM)
⇐ Return Journey: Train# 51421

51422/Nizamabad Pune Passenger (UnReserved)

Time-Table HAS CHANGED.
Sep 03 (4:44PM)
Change Departure Station:
Change Arrival Station:
Post a Train Travel TipPost a Train Travel Tip **new
Post a Comment/Question/Picture/VideoPost a Comment/Question/Picture/Video
Pantry/Catering
✕ NO Pantry Car
✓ Catering Avbl
Loco/Rake Reversals
DD/Daund Junction (7);
RSA - Rake Sharing
51433-34 and 51451-52
Rake/Coach Composition
SLR, UR, UR, UR, UR, UR, UR, UR, SLR,
Loco
PUNE WDM/G-3A / WDM-3D
News    PNR    Forum    Time-Table    Availability    Fare Chart    Map    Arr/Dep History    Trips    Gallery    ΣChains    X/O    Timeline    
Travel Time: 21h 15m    74 halts    Distance: 774 km    Avg Speed: 36 km/hr
Type: Passenger
Zone: CR/Central
Departs @ 23:40
Platform# ???
SMTWTFS
Nizamabad/NZB 
Arrives @ 20:55 +1 night
Platform# 6
SMTWTFS
Pune Junction/PUNE 

74 halts. 95 intermediate Stations between Nizamabad and Pune Junction

Show ALL intermediate Stations  Show Old Time-Table

#CodeStation NameX/OArrivesAvgDepartsAvgHaltPFDay#KmSpeedElevZoneAddress
1NZBNizamabad (3)»  -23:40---10.047384mSCRNizamabad, Telangana
2JKMJankampet Junction (1)  23:48-23:49-1m116.256391mSCRJankampet Junction nizamabad dist., Telangana
3NVTNavipet (2)  23:59-00:01-2m--115.655374mSCRNizamabad Dist., Telangana
4BSXBasar (2)  00:16-00:18-2m1229.459358mSCRDist Adilabad, Telangana
5DABDharmabad (2)  00:28-00:29-1m--239.269354mSCRDegaon, Maharashtra
6KEKKarkheliX  00:41-00:42-1m--253.055358mSCRBiloli, Maharashtra
7BLSABolsaXO  00:50-00:51-1m--260.222361mSCRDharmabad, Maharashtra
8UMRIUmri (1)XO  01:14-01:15-1m1268.753381mSCRHuzur Sahib Nanded, Maharashtra
9SVNSivungaonX  01:29-01:30-1m--280.915395mSCRHuzur Sahib Nanded, Maharashtra
10MUEMudkhed Junction (4)  01:58-02:00-2m--288.261378mSCRMudkhed, Maharashtra
11MGCMugat  02:09-02:10-1m--297.326360mSCRHuzur Sahib Nanded, Maharashtra
12NEDHazur Sahib Nanded (4)  02:40-02:45-5m22110.556366mSCRNanded, Maharashtra
13LBGLimbgaon (2)X  02:58 02:57-02:59 02:58-1m--2121.664390mSCRHuzur Sahib Nanded, Maharashtra
14CRUChudawa (1)X  03:07-03:08-1m12131.235392mSCRHingoli, Maharashtra
15PAUPurna Junction (4)X  03:25-03:30-5m--2141.152384mSCRPurna, Maharashtra
16MQLMirkhal  03:44-03:45-1m--2153.254405mSCRPurna, Maharashtra
17PIZPingli (1)X  03:51-03:52-1m12158.660399mSCRParbhani, Maharashtra
18PBNParbhani Junction (3)X  04:03-04:05-2m12169.666414mSCRParbhani 431401, Maharashtra
19PGPergaon  04:16-04:17-1m--2181.776441mSCRParbhani, Maharashtra
20MVOManwath Road (2)  04:29-04:30-1m--2196.982421mSCRParbhani, Maharashtra
21SELUSelu (2)  04:41-04:42-1m--2212.087436mSCRParbhani, Maharashtra
22SCOSatuna  04:49-04:50-1m--2222.253440mSCRSatona, Maharashtra
23UPRUsmanpur  04:59-05:00-1m--2230.120444mSCRUsmanpur, Maharashtra
24PTUPartur (2)X  05:29-05:30-1m--2239.648465mSCRJalna, Maharashtra
25PDGParadgaon  05:39-05:40-1m--2246.842454mSCRUsmanpur, Maharashtra
26RNERanjani  05:49-05:50-1m--2253.036469mSCRJalna, Maharashtra
27KODIKodiXO  06:19 06:09-06:20 06:10-1m--2264.325473mSCRRanjani, Maharashtra
28SVDSarwari  06:34-06:35-1m--2274.221493mSCRRanjani, Maharashtra
29JJalna (3)  07:03-07:05-2m--2283.960502mSCRJalna, Maharashtra
30BDUBadnapur  07:24-07:25-1m--2302.966523mSCRJalna, Maharashtra
31KMVKarmadX  07:39-07:40-1m--2318.426567mSCRAurangabad, Maharashtra
32CTHChikalthan  07:49-07:50-1m--2322.3-582mSCRAurangabad, Maharashtra
33MKDDMukundwadi Halt (1)  07:54-07:55-1m12336.630580mSCRAurangabad, Maharashtra
34AWBAurangabad (5)X  08:15-08:20-5m--2346.653561mSCRAurangabad 431001, Maharashtra
35DLBDaulatabad (1)  08:34-08:35-1m12359.140575mSCRDaulatabad, Maharashtra
36POZPotul (1)  08:49-08:50-1m12368.437554mSCRLasur, Maharashtra
37LSRLasur (2)  09:09-09:10-1m--2380.268536mSCRAurangabad, Maharashtra
38KAJGKaranjgaon  09:19-09:20-1m--2390.331523mSCRLasur, Maharashtra
39PSDParsoda  09:29-09:30-1m--2395.053530mSCRRotegaon, Maharashtra
40RGORotegaonX  09:44-09:45-1m--2407.393547mSCRAurangabad, Maharashtra
41TRTarur  09:59-10:00-1m--2429.119586mSCRTaru, Maharashtra
42NSLNagarsol (2)  10:19-10:20-1m--2435.221589mSCRDist. Nashik, Maharashtra
43MMRManmad Junction (6)X  11:30-11:40-10m42460.120580mCRManmad 423104, Maharashtra
44ANKAnkai (3)  12:18-12:20-2m22473.072620mSCRDist. Nashik, Maharashtra
45YLYeola (2)  12:33-12:35-2m--2488.763553mCRYeola, Maharashtra
46KPGKopargaon (2)12:48-12:50-2m12502.366508mCRKopargaon 423601, Maharashtra
47SNVRSanvatsarX  12:57-12:58-1m--2510.158521mCRNagpur-Aurngabad-Mumbai Hwy, Maharashtra
48KNGNKanhegaon (2)X  13:06-13:08-2m--2517.754498mCRAhmadnagar, Maharashtra
49PBPuntamba Junction (2)  13:18-13:20-2m22526.766501mCRPuntamba, Maharashtra
50CITChitali (1)X13:28-13:30-2m12535.525531mCRAhmadnagar, Maharashtra
51BAPBelapur (2)  13:58-14:00-2m22547.053541mCRShrirampur, Maharashtra
52NPWNipani Vadgaon (2)  14:07-14:08-1m--2553.251531mCRChitali, Maharashtra
53PDGNPadhegaon (1)  14:15-14:17-2m12559.178512mCRBelapur, Maharashtra
54TKMYTaklimiya (1)  14:24-14:25-1m12568.239511mCRVambori, Maharashtra
55RRIRahuri (2)X  14:33-14:35-2m--2573.461519mCRAhmadnagar, Maharashtra
56VBRVambori (1)X  14:48-14:50-2m12586.625547mCRAhmadnagar, Maharashtra
57VLVilad (1)X  15:18-15:20-2m12598.132598mCRAhmadnagar, Maharashtra
58ANGAhmadnagar (2)  15:50-15:55-5m12614.040650mCRAhmednagar 414001, Maharashtra
59AKRAkolner (1)  16:14-16:15-1m12626.843689mCRAhmadnagar, Maharashtra
60SRLSarola (2)  16:23-16:25-2m12632.6450mCRAhmadnagar, Maharashtra
61RNJDRanjangaon Road (1)X  16:39-16:40-1m12643.046656mCRDist. Pune, Maharashtra
62VPRVisapur (2)X  16:48-16:50-2m12649.229186mCRAhmadnagar, Maharashtra
63BWDBelwandi (2)X  17:18-17:20-2m12662.965592mCRAhmadnagar, Maharashtra
64SGNDShrigonda Road (2)X  17:33-17:35-2m22677.021547mCRAhmadnagar, Maharashtra
65KSTHKashti (2)  17:59-18:00-1m12685.317540mCRDaund, Maharashtra
66DDDaund Junction (7)X18:45-19:00-15m42698.250521mCRNew Daund Dist. Pune 413801, Maharashtra
67PAAPatas (3)  19:14-19:15-1m12709.858532mCRDist. Pune 412219, Maharashtra
68KDTNKadethanX  19:20-19:21-1m12714.638532mCRDaund, Maharashtra
69KDGKedgaon (2)  19:29-19:30-1m22719.764544mCRDist. Pune 412203, Maharashtra
70KTTKhutbav (2)X  19:36-19:37-1m12726.142558mCRShirur-Daund Rd Daund, Maharashtra
71YTYevat (2)X  19:46-19:47-1m12732.463558mCRDist. Pune 412214, Maharashtra
72URIUruli (2)X  19:59-20:00-1m12745.062553mCRDist. Pune 412202, Maharashtra
73LONILoni (2)  20:12-20:13-1m12757.456541mCRPune 412201, Maharashtra
74MJBKManjari Budruk (2)X  20:19-20:20-1m12763.042550mCRPune 412307, Maharashtra
75HDPHadapsar (3)  20:27-20:28-1m22768.013554mCRPune 411028, Maharashtra
76PUNEPune Junction (6)•  20:55--62773.8-556mCRPune 411001, Maharashtra
Scroll to Top
Scroll to Bottom